Time;durP1;ratioP1;P1;durP2;ratioP2;P2;SDS_P1;SDS_P2;PMS_P1;PMS_P2;Temp;Humidity;BMP_temperature;BMP_pressure;BME280_temperature;BME280_humidity;BME280_pressure;Samples;Min_cycle;Max_cycle;Signal;HPM_P1;HPM_P2
2021/05/23 00:00:46;;;;;;;21.08;12.50;;;;;;;;;;1465550;40;20427;-81
2021/05/23 00:01:48;;;;;;;20.30;12.25;;;;;;;;;;1457882;40;20494;-81
2021/05/23 00:02:51;;;;;;;19.25;12.10;;;;;;;;;;1453525;40;20408;-81
2021/05/23 00:03:53;;;;;;;22.13;12.02;;;;;;;;;;1461899;40;20409;-81
2021/05/23 00:04:57;;;;;;;19.77;11.85;;;;;;;;;;1461243;40;20464;-80
2021/05/23 00:06:00;;;;;;;18.20;12.02;;;;;;;;;;1462045;40;20393;-80
2021/05/23 00:07:02;;;;;;;19.20;11.50;;;;;;;;;;1460373;40;20421;-80
2021/05/23 00:08:08;;;;;;;19.40;12.27;;;;;;;;;;1453482;40;20523;-81
2021/05/23 00:09:10;;;;;;;18.67;11.70;;;;;;;;;;1457774;40;20803;-80
2021/05/23 00:10:11;;;;;;;20.70;11.48;;;;;;;;;;1465576;40;20426;-80
2021/05/23 00:11:13;;;;;;;17.55;12.75;;;;;;;;;;1461432;40;20524;-81
2021/05/23 00:12:16;;;;;;;19.88;12.10;;;;;;;;;;1461875;40;20933;-80
2021/05/23 00:13:21;;;;;;;20.85;12.80;;;;;;;;;;1461757;40;20723;-81
2021/05/23 00:14:23;;;;;;;19.35;13.05;;;;;;;;;;1457966;40;20422;-80
2021/05/23 00:15:29;;;;;;;17.23;12.20;;;;;;;;;;1465621;40;20924;-81
2021/05/23 00:16:31;;;;;;;19.10;12.38;;;;;;;;;;1465297;40;20793;-80
2021/05/23 00:17:32;;;;;;;19.25;12.02;;;;;;;;;;1461654;40;20837;-80
2021/05/23 00:18:37;;;;;;;21.15;12.30;;;;;;;;;;1457755;40;20725;-80
2021/05/23 00:19:39;;;;;;;18.58;11.75;;;;;;;;;;1453605;40;20533;-80
2021/05/23 00:20:41;;;;;;;22.42;11.70;;;;;;;;;;1457582;40;20426;-80
2021/05/23 00:21:42;;;;;;;16.33;10.63;;;;;;;;;;1461484;40;20843;-80
2021/05/23 00:22:44;;;;;;;17.90;11.10;;;;;;;;;;1465891;40;20419;-80
2021/05/23 00:23:46;;;;;;;15.50;10.13;;;;;;;;;;1461978;40;20533;-81
2021/05/23 00:24:48;;;;;;;18.90;10.07;;;;;;;;;;1461637;40;20531;-81
2021/05/23 00:25:51;;;;;;;16.43;10.30;;;;;;;;;;1462096;40;20580;-80
2021/05/23 00:26:52;;;;;;;17.77;11.40;;;;;;;;;;1462550;40;20441;-80
2021/05/23 00:27:54;;;;;;;18.00;10.35;;;;;;;;;;1465803;40;20404;-80
2021/05/23 00:28:56;;;;;;;18.05;10.70;;;;;;;;;;1461714;40;20462;-81
2021/05/23 00:30:03;;;;;;;16.48;10.13;;;;;;;;;;1461969;40;20479;-80
2021/05/23 00:31:06;;;;;;;19.90;10.05;;;;;;;;;;1456980;40;20422;-80
2021/05/23 00:32:07;;;;;;;15.75;10.15;;;;;;;;;;1452724;40;20436;-81
2021/05/23 00:33:10;;;;;;;16.10;10.32;;;;;;;;;;1453691;40;20417;-80
2021/05/23 00:34:12;;;;;;;16.30;9.88;;;;;;;;;;1449611;40;20421;-81
2021/05/23 00:35:14;;;;;;;15.90;10.77;;;;;;;;;;1453381;40;20424;-81
2021/05/23 00:36:15;;;;;;;15.95;11.27;;;;;;;;;;1456226;40;20422;-80
2021/05/23 00:37:17;;;;;;;19.73;11.77;;;;;;;;;;1457586;40;20542;-80
2021/05/23 00:38:19;;;;;;;17.50;11.25;;;;;;;;;;1462026;40;20408;-81
2021/05/23 00:39:21;;;;;;;17.00;11.57;;;;;;;;;;1462310;40;20421;-81
2021/05/23 00:40:23;;;;;;;15.55;11.63;;;;;;;;;;1457253;40;20415;-80
2021/05/23 00:41:25;;;;;;;17.63;11.17;;;;;;;;;;1461945;40;20481;-80
2021/05/23 00:42:26;;;;;;;17.95;11.48;;;;;;;;;;1461267;40;20425;-81
2021/05/23 00:43:29;;;;;;;18.42;11.48;;;;;;;;;;1457935;40;20476;-81
2021/05/23 00:44:30;;;;;;;15.90;10.25;;;;;;;;;;1460844;40;20525;-81
2021/05/23 00:45:35;;;;;;;15.95;11.23;;;;;;;;;;1462298;40;20473;-81
2021/05/23 00:46:38;;;;;;;18.20;10.77;;;;;;;;;;1465629;40;20407;-81
2021/05/23 00:47:40;;;;;;;15.88;10.70;;;;;;;;;;1457605;40;20410;-81
2021/05/23 00:48:42;;;;;;;16.40;10.80;;;;;;;;;;1449813;40;20549;-81
2021/05/23 00:49:43;;;;;;;16.60;10.15;;;;;;;;;;1457910;40;20406;-81
2021/05/23 00:50:46;;;;;;;16.08;10.32;;;;;;;;;;1457476;40;20415;-81
2021/05/23 00:51:48;;;;;;;15.63;11.00;;;;;;;;;;1461483;40;20517;-80
2021/05/23 00:52:54;;;;;;;17.20;11.30;;;;;;;;;;1465563;40;20403;-80
2021/05/23 00:53:56;;;;;;;19.55;10.70;;;;;;;;;;1462931;40;20405;-80
2021/05/23 00:54:57;;;;;;;20.65;11.55;;;;;;;;;;1462656;40;20429;-80
2021/05/23 00:56:00;;;;;;;17.65;10.93;;;;;;;;;;1462364;40;20425;-80
2021/05/23 00:57:03;;;;;;;19.00;10.60;;;;;;;;;;1461211;40;20425;-80
2021/05/23 00:58:06;;;;;;;17.48;10.43;;;;;;;;;;1465846;40;20407;-80
2021/05/23 00:59:09;;;;;;;20.92;11.05;;;;;;;;;;1465864;40;20467;-81
2021/05/23 01:00:11;;;;;;;17.35;10.10;;;;;;;;;;1466059;40;20638;-80
2021/05/23 01:01:34;;;;;;;16.92;10.77;;;;;;;;;;1457293;40;20410;-80
2021/05/23 01:02:47;;;;;;;16.10;10.98;;;;;;;;;;1456620;40;20424;-81
2021/05/23 01:03:49;;;;;;;25.83;11.82;;;;;;;;;;1461826;40;20433;-81
2021/05/23 01:04:50;;;;;;;19.00;10.80;;;;;;;;;;1457610;40;20828;-80
2021/05/23 01:05:56;;;;;;;16.65;10.45;;;;;;;;;;1461457;40;20841;-81
2021/05/23 01:06:58;;;;;;;16.20;10.48;;;;;;;;;;1461480;40;20417;-80
2021/05/23 01:08:00;;;;;;;21.08;11.13;;;;;;;;;;1461932;40;20424;-80
2021/05/23 01:09:06;;;;;;;17.58;11.32;;;;;;;;;;1458284;40;20478;-81
2021/05/23 01:10:13;;;;;;;19.27;10.73;;;;;;;;;;1457908;40;20423;-81
2021/05/23 01:11:28;;;;;;;18.77;10.65;;;;;;;;;;1460187;40;20433;-81
2021/05/23 01:12:56;;;;;;;20.15;10.73;;;;;;;;;;1459245;40;20413;-80
2021/05/23 01:13:58;;;;;;;17.42;10.93;;;;;;;;;;1462972;40;20393;-82
2021/05/23 01:15:02;;;;;;;20.02;11.13;;;;;;;;;;1462675;40;21026;-81
2021/05/23 01:16:11;;;;;;;17.98;11.38;;;;;;;;;;1461517;40;20797;-82
2021/05/23 01:17:15;;;;;;;18.50;11.07;;;;;;;;;;1461764;40;20421;-81
2021/05/23 01:18:22;;;;;;;18.42;11.45;;;;;;;;;;1461775;40;20440;-82
2021/05/23 01:19:33;;;;;;;18.33;11.57;;;;;;;;;;1462318;40;20456;-81
2021/05/23 01:20:45;;;;;;;17.42;11.32;;;;;;;;;;1457088;40;20457;-81
2021/05/23 01:22:04;;;;;;;19.50;10.38;;;;;;;;;;1457966;40;20442;-81
2021/05/23 01:23:22;;;;;;;19.23;10.98;;;;;;;;;;1466073;40;20455;-81
2021/05/23 01:24:31;;;;;;;18.73;10.63;;;;;;;;;;1464651;40;21135;-81
2021/05/23 01:25:35;;;;;;;16.10;10.32;;;;;;;;;;1458179;40;20453;-80
2021/05/23 01:26:38;;;;;;;16.52;10.18;;;;;;;;;;1459118;40;20445;-81
2021/05/23 01:27:45;;;;;;;18.45;10.18;;;;;;;;;;1463689;40;20412;-81
2021/05/23 01:28:56;;;;;;;16.83;10.35;;;;;;;;;;1458801;40;20826;-80
2021/05/23 01:29:59;;;;;;;18.50;11.10;;;;;;;;;;1457345;40;20554;-80
2021/05/23 01:31:06;;;;;;;17.20;10.90;;;;;;;;;;1457778;40;20454;-80
2021/05/23 01:32:08;;;;;;;16.23;10.90;;;;;;;;;;1457443;40;20406;-80
2021/05/23 01:33:13;;;;;;;18.20;10.93;;;;;;;;;;1449689;40;20481;-80
2021/05/23 01:34:17;;;;;;;17.10;10.68;;;;;;;;;;1454087;40;20388;-80
2021/05/23 01:35:23;;;;;;;18.90;11.13;;;;;;;;;;1457102;40;20419;-80
2021/05/23 01:36:31;;;;;;;18.02;11.07;;;;;;;;;;1457617;40;20423;-80
2021/05/23 01:37:33;;;;;;;19.20;10.57;;;;;;;;;;1457798;40;20449;-80
2021/05/23 01:38:35;;;;;;;23.77;11.88;;;;;;;;;;1452533;40;20456;-80
2021/05/23 01:39:37;;;;;;;20.65;11.70;;;;;;;;;;1453936;40;20535;-80
2021/05/23 01:40:39;;;;;;;26.60;11.45;;;;;;;;;;1461259;40;20727;-80
2021/05/23 01:41:42;;;;;;;19.92;10.30;;;;;;;;;;1461561;40;20416;-80
2021/05/23 01:42:45;;;;;;;21.83;11.77;;;;;;;;;;1457374;40;20426;-80
2021/05/23 01:43:47;;;;;;;18.77;11.35;;;;;;;;;;1457267;40;20479;-80
2021/05/23 01:44:50;;;;;;;20.45;11.20;;;;;;;;;;1465970;40;20522;-81
2021/05/23 01:45:52;;;;;;;17.92;11.02;;;;;;;;;;1467302;40;20403;-80
2021/05/23 01:46:54;;;;;;;16.10;11.38;;;;;;;;;;1465973;40;20424;-81
2021/05/23 01:47:57;;;;;;;20.55;10.98;;;;;;;;;;1462151;40;20407;-80
2021/05/23 01:48:59;;;;;;;22.67;11.98;;;;;;;;;;1462547;40;20785;-81
2021/05/23 01:50:01;;;;;;;19.63;11.90;;;;;;;;;;1466700;40;20557;-80
2021/05/23 01:51:03;;;;;;;18.45;12.73;;;;;;;;;;1462584;40;20438;-81
2021/05/23 01:52:04;;;;;;;18.85;11.63;;;;;;;;;;1465927;40;20682;-79
2021/05/23 01:53:07;;;;;;;17.65;11.32;;;;;;;;;;1465599;40;20440;-80
2021/05/23 01:54:09;;;;;;;19.08;12.70;;;;;;;;;;1457861;40;20424;-80
2021/05/23 01:55:11;;;;;;;17.08;12.65;;;;;;;;;;1458746;40;20748;-80
2021/05/23 01:56:12;;;;;;;22.23;12.68;;;;;;;;;;1462753;40;20476;-79
2021/05/23 01:57:14;;;;;;;21.35;13.18;;;;;;;;;;1462315;40;20397;-81
2021/05/23 01:58:16;;;;;;;20.50;13.82;;;;;;;;;;1465587;40;20422;-80
2021/05/23 01:59:18;;;;;;;22.42;12.82;;;;;;;;;;1465237;40;20434;-80
2021/05/23 02:00:25;;;;;;;22.45;12.75;;;;;;;;;;1457684;40;20423;-80
2021/05/23 02:01:27;;;;;;;20.08;13.02;;;;;;;;;;1453859;40;20396;-80
2021/05/23 02:02:29;;;;;;;17.63;12.10;;;;;;;;;;1457760;40;20430;-80
2021/05/23 02:03:32;;;;;;;20.80;13.00;;;;;;;;;;1465898;40;20444;-80
2021/05/23 02:04:33;;;;;;;16.48;13.13;;;;;;;;;;1457393;40;20419;-80
2021/05/23 02:05:39;;;;;;;17.30;12.63;;;;;;;;;;1453731;40;20853;-81
2021/05/23 02:06:40;;;;;;;19.48;12.50;;;;;;;;;;1460854;40;20432;-80
2021/05/23 02:07:43;;;;;;;22.42;13.25;;;;;;;;;;1461779;40;20829;-81
2021/05/23 02:08:44;;;;;;;17.95;13.57;;;;;;;;;;1461345;40;20449;-81
2021/05/23 02:09:46;;;;;;;20.08;12.95;;;;;;;;;;1461438;40;20464;-81
2021/05/23 02:10:50;;;;;;;17.45;13.02;;;;;;;;;;1457273;40;20434;-81
2021/05/23 02:11:55;;;;;;;19.05;13.35;;;;;;;;;;1452921;40;20416;-81
2021/05/23 02:13:05;;;;;;;22.13;13.80;;;;;;;;;;1457294;40;20402;-80
2021/05/23 02:14:07;;;;;;;16.90;12.88;;;;;;;;;;1457949;40;20414;-80
2021/05/23 02:15:09;;;;;;;19.00;13.45;;;;;;;;;;1462081;40;20478;-80
2021/05/23 02:16:11;;;;;;;17.85;13.98;;;;;;;;;;1461967;40;20413;-81
2021/05/23 02:17:13;;;;;;;20.38;13.27;;;;;;;;;;1456877;40;20432;-80
2021/05/23 02:18:14;;;;;;;20.77;13.88;;;;;;;;;;1461058;40;20440;-81
2021/05/23 02:19:16;;;;;;;22.50;14.00;;;;;;;;;;1461783;40;20429;-81
2021/05/23 02:20:21;;;;;;;22.45;14.07;;;;;;;;;;1461830;40;20420;-81
2021/05/23 02:21:23;;;;;;;20.42;14.63;;;;;;;;;;1461868;40;20405;-80
2021/05/23 02:22:24;;;;;;;18.60;13.70;;;;;;;;;;1465795;40;20430;-81
2021/05/23 02:23:26;;;;;;;19.40;15.02;;;;;;;;;;1457903;40;20406;-80
2021/05/23 02:24:28;;;;;;;18.65;14.00;;;;;;;;;;1453552;40;20445;-81
2021/05/23 02:25:31;;;;;;;19.48;13.95;;;;;;;;;;1462572;40;20872;-81
2021/05/23 02:26:32;;;;;;;18.80;14.95;;;;;;;;;;1465930;40;20407;-80
2021/05/23 02:27:40;;;;;;;19.63;14.07;;;;;;;;;;1461551;40;20946;-80
2021/05/23 02:28:42;;;;;;;21.67;15.65;;;;;;;;;;1458381;40;20434;-81
2021/05/23 02:29:45;;;;;;;20.27;14.93;;;;;;;;;;1465211;40;20489;-81
2021/05/23 02:30:49;;;;;;;19.77;15.02;;;;;;;;;;1461673;40;20417;-81
2021/05/23 02:31:51;;;;;;;21.33;16.00;;;;;;;;;;1457268;40;20442;-81
2021/05/23 02:32:54;;;;;;;18.90;14.85;;;;;;;;;;1457799;40;20430;-80
2021/05/23 02:33:56;;;;;;;21.15;15.20;;;;;;;;;;1457846;40;20864;-80
2021/05/23 02:34:57;;;;;;;21.15;16.83;;;;;;;;;;1457764;40;20752;-81
2021/05/23 02:35:59;;;;;;;18.80;16.23;;;;;;;;;;1453924;40;20677;-81
2021/05/23 02:37:01;;;;;;;18.30;15.80;;;;;;;;;;1457256;40;20864;-80
2021/05/23 02:38:05;;;;;;;22.05;16.15;;;;;;;;;;1462051;40;20468;-80
2021/05/23 02:39:07;;;;;;;21.50;17.42;;;;;;;;;;1462393;40;20420;-80
2021/05/23 02:40:13;;;;;;;21.63;17.00;;;;;;;;;;1462944;40;20433;-81
2021/05/23 02:41:15;;;;;;;21.17;16.90;;;;;;;;;;1459569;40;20414;-81
2021/05/23 02:42:17;;;;;;;22.95;17.88;;;;;;;;;;1465529;40;20397;-80
2021/05/23 02:43:19;;;;;;;20.60;17.58;;;;;;;;;;1465347;40;20421;-81
2021/05/23 02:44:21;;;;;;;23.15;18.38;;;;;;;;;;1463567;40;20416;-81
2021/05/23 02:45:23;;;;;;;23.48;18.92;;;;;;;;;;1465721;40;20427;-81
2021/05/23 02:46:25;;;;;;;27.13;19.73;;;;;;;;;;1466121;40;20418;-81
2021/05/23 02:47:27;;;;;;;26.83;20.58;;;;;;;;;;1457633;40;20442;-80
2021/05/23 02:48:29;;;;;;;26.33;19.88;;;;;;;;;;1458117;40;20836;-81
2021/05/23 02:49:31;;;;;;;29.40;20.70;;;;;;;;;;1453761;40;20503;-80
2021/05/23 02:50:35;;;;;;;26.98;21.27;;;;;;;;;;1458162;40;20499;-81
2021/05/23 02:51:37;;;;;;;25.92;20.67;;;;;;;;;;1465338;40;20581;-81
2021/05/23 02:52:39;;;;;;;24.13;20.13;;;;;;;;;;1466023;40;20494;-80
2021/05/23 02:53:40;;;;;;;26.17;20.15;;;;;;;;;;1465697;40;20447;-80
2021/05/23 02:54:43;;;;;;;28.43;21.23;;;;;;;;;;1466186;40;20578;-80
2021/05/23 02:55:47;;;;;;;25.83;20.98;;;;;;;;;;1465532;40;20451;-81
2021/05/23 02:56:48;;;;;;;27.40;21.70;;;;;;;;;;1462475;40;20416;-81
2021/05/23 02:57:51;;;;;;;29.42;23.05;;;;;;;;;;1457557;40;20431;-81
2021/05/23 02:58:52;;;;;;;29.58;21.85;;;;;;;;;;1458113;40;20512;-80
2021/05/23 02:59:54;;;;;;;28.67;21.98;;;;;;;;;;1454152;40;20518;-81
2021/05/23 03:00:56;;;;;;;44.50;25.70;;;;;;;;;;1457908;40;20407;-81
2021/05/23 03:01:57;;;;;;;33.65;23.08;;;;;;;;;;1461457;40;20644;-81
2021/05/23 03:02:59;;;;;;;31.40;22.67;;;;;;;;;;1457864;40;20437;-81
2021/05/23 03:04:01;;;;;;;29.83;20.52;;;;;;;;;;1457617;40;20485;-80
2021/05/23 03:05:11;;;;;;;26.90;19.90;;;;;;;;;;1465920;40;20430;-80
2021/05/23 03:06:13;;;;;;;23.95;18.00;;;;;;;;;;1461448;40;20417;-81
2021/05/23 03:07:14;;;;;;;21.83;17.92;;;;;;;;;;1461829;40;20464;-80
2021/05/23 03:08:16;;;;;;;20.85;17.90;;;;;;;;;;1461192;40;20500;-80
2021/05/23 03:09:18;;;;;;;24.85;17.08;;;;;;;;;;1461953;40;20417;-80
2021/05/23 03:10:26;;;;;;;19.52;15.40;;;;;;;;;;1457600;40;20430;-80
2021/05/23 03:11:27;;;;;;;21.38;16.63;;;;;;;;;;1458489;40;20398;-80
2021/05/23 03:12:29;;;;;;;19.08;16.38;;;;;;;;;;1465493;40;20776;-80
2021/05/23 03:13:30;;;;;;;20.13;16.20;;;;;;;;;;1465154;40;20682;-80
2021/05/23 03:14:32;;;;;;;17.20;14.32;;;;;;;;;;1456645;40;20415;-80
2021/05/23 03:15:34;;;;;;;21.73;15.65;;;;;;;;;;1450161;40;20474;-80
2021/05/23 03:16:36;;;;;;;19.67;15.50;;;;;;;;;;1454449;40;20409;-81
2021/05/23 03:17:39;;;;;;;18.17;15.35;;;;;;;;;;1457799;40;21170;-81
2021/05/23 03:18:40;;;;;;;18.55;15.13;;;;;;;;;;1458113;40;20466;-80
2021/05/23 03:19:42;;;;;;;14.88;12.25;;;;;;;;;;1458044;40;20419;-80
2021/05/23 03:20:44;;;;;;;10.77;9.00;;;;;;;;;;1454455;40;20795;-80
2021/05/23 03:21:45;;;;;;;12.00;9.63;;;;;;;;;;1462520;40;20857;-80
2021/05/23 03:22:53;;;;;;;12.05;10.82;;;;;;;;;;1462180;40;20726;-80
2021/05/23 03:23:55;;;;;;;11.32;9.88;;;;;;;;;;1458838;40;20469;-81
2021/05/23 03:24:57;;;;;;;10.52;9.50;;;;;;;;;;1457467;40;20410;-80
2021/05/23 03:25:58;;;;;;;14.15;11.10;;;;;;;;;;1458211;40;20423;-81
2021/05/23 03:27:01;;;;;;;12.35;11.02;;;;;;;;;;1462996;40;20419;-80
2021/05/23 03:28:03;;;;;;;15.13;12.07;;;;;;;;;;1458263;40;20436;-81
2021/05/23 03:29:05;;;;;;;16.40;12.45;;;;;;;;;;1454510;40;20967;-80
2021/05/23 03:30:09;;;;;;;17.42;13.07;;;;;;;;;;1458253;40;20438;-80
2021/05/23 03:31:11;;;;;;;15.30;12.68;;;;;;;;;;1462405;40;20397;-80
2021/05/23 03:32:12;;;;;;;16.07;12.20;;;;;;;;;;1465750;40;20585;-80
2021/05/23 03:33:14;;;;;;;19.27;12.75;;;;;;;;;;1461252;40;20485;-81
2021/05/23 03:34:16;;;;;;;14.32;11.05;;;;;;;;;;1458046;40;20418;-80
2021/05/23 03:35:18;;;;;;;14.55;11.80;;;;;;;;;;1461956;40;20421;-80
2021/05/23 03:36:20;;;;;;;14.48;10.93;;;;;;;;;;1457824;40;20418;-79
2021/05/23 03:37:22;;;;;;;13.90;10.32;;;;;;;;;;1453580;40;20849;-81
2021/05/23 03:38:23;;;;;;;13.00;10.20;;;;;;;;;;1457580;40;20820;-80
2021/05/23 03:39:25;;;;;;;11.45;9.68;;;;;;;;;;1457205;40;20503;-80
2021/05/23 03:40:27;;;;;;;10.75;9.13;;;;;;;;;;1462221;40;20482;-80
2021/05/23 03:41:28;;;;;;;9.95;8.88;;;;;;;;;;1462287;40;20409;-80
2021/05/23 03:42:30;;;;;;;10.05;7.95;;;;;;;;;;1457377;40;20442;-80
2021/05/23 03:43:31;;;;;;;9.63;8.60;;;;;;;;;;1457332;40;20466;-80
2021/05/23 03:44:34;;;;;;;9.23;7.82;;;;;;;;;;1461862;40;20685;-80
2021/05/23 03:45:35;;;;;;;7.43;6.73;;;;;;;;;;1457811;40;20488;-80
2021/05/23 03:46:37;;;;;;;6.80;6.25;;;;;;;;;;1461654;40;20409;-80
2021/05/23 03:47:39;;;;;;;6.57;5.97;;;;;;;;;;1461284;40;20421;-80
2021/05/23 03:48:40;;;;;;;6.65;5.85;;;;;;;;;;1457689;40;20414;-80
2021/05/23 03:49:42;;;;;;;6.63;5.83;;;;;;;;;;1462164;40;21008;-80
2021/05/23 03:50:43;;;;;;;9.63;6.00;;;;;;;;;;1465611;40;20492;-80
2021/05/23 03:51:45;;;;;;;7.45;5.80;;;;;;;;;;1457378;40;20502;-80
2021/05/23 03:52:49;;;;;;;6.88;6.15;;;;;;;;;;1457542;40;20490;-81
2021/05/23 03:53:51;;;;;;;7.25;6.22;;;;;;;;;;1450111;40;20429;-80
2021/05/23 03:54:52;;;;;;;6.47;5.82;;;;;;;;;;1457667;40;21199;-81
2021/05/23 03:55:54;;;;;;;8.23;5.90;;;;;;;;;;1465166;40;20419;-80
2021/05/23 03:56:56;;;;;;;7.05;6.30;;;;;;;;;;1461627;40;20882;-80
2021/05/23 03:57:58;;;;;;;8.88;6.40;;;;;;;;;;1457998;40;20443;-80
2021/05/23 03:59:00;;;;;;;7.30;6.53;;;;;;;;;;1454993;40;20431;-80
2021/05/23 04:00:05;;;;;;;9.57;6.82;;;;;;;;;;1459068;40;20941;-80
2021/05/23 04:01:06;;;;;;;8.30;6.88;;;;;;;;;;1463611;40;20416;-80
2021/05/23 04:02:08;;;;;;;8.40;7.60;;;;;;;;;;1458595;40;20443;-80
2021/05/23 04:03:10;;;;;;;9.35;7.82;;;;;;;;;;1461624;40;20858;-80
2021/05/23 04:04:11;;;;;;;9.80;7.53;;;;;;;;;;1457034;40;20762;-80
2021/05/23 04:05:14;;;;;;;9.50;8.47;;;;;;;;;;1457789;40;20556;-80
2021/05/23 04:06:16;;;;;;;9.80;7.88;;;;;;;;;;1465701;40;20413;-80
2021/05/23 04:07:19;;;;;;;13.30;8.95;;;;;;;;;;1461820;40;20417;-80
2021/05/23 04:08:21;;;;;;;11.00;9.07;;;;;;;;;;1461460;40;20413;-81
2021/05/23 04:09:24;;;;;;;11.00;8.95;;;;;;;;;;1465929;40;20835;-80
2021/05/23 04:10:34;;;;;;;10.50;8.90;;;;;;;;;;1465871;40;20490;-80
2021/05/23 04:11:40;;;;;;;13.85;9.68;;;;;;;;;;1460018;40;20440;-81
2021/05/23 04:12:44;;;;;;;10.85;9.75;;;;;;;;;;1465946;40;20421;-81
2021/05/23 04:13:47;;;;;;;13.40;9.45;;;;;;;;;;1466448;40;20397;-80
2021/05/23 04:14:49;;;;;;;12.63;9.98;;;;;;;;;;1463320;40;20416;-81
2021/05/23 04:15:50;;;;;;;10.73;9.63;;;;;;;;;;1467716;40;20421;-81
2021/05/23 04:16:52;;;;;;;11.80;9.93;;;;;;;;;;1473158;40;20398;-81
2021/05/23 04:17:54;;;;;;;14.70;11.30;;;;;;;;;;1471799;40;20458;-81
2021/05/23 04:18:55;;;;;;;15.47;11.73;;;;;;;;;;1467462;40;20608;-81
2021/05/23 04:19:57;;;;;;;17.50;11.88;;;;;;;;;;1465501;40;20424;-80
2021/05/23 04:20:58;;;;;;;15.07;12.65;;;;;;;;;;1461904;40;20453;-80
2021/05/23 04:22:02;;;;;;;14.75;11.23;;;;;;;;;;1458384;40;20481;-80
2021/05/23 04:23:04;;;;;;;16.40;11.68;;;;;;;;;;1465798;40;20706;-80
2021/05/23 04:24:06;;;;;;;15.27;11.38;;;;;;;;;;1453476;40;20526;-80
2021/05/23 04:25:12;;;;;;;16.77;12.77;;;;;;;;;;1450229;40;20918;-80
2021/05/23 04:26:14;;;;;;;14.17;11.10;;;;;;;;;;1462082;40;20527;-80
2021/05/23 04:27:15;;;;;;;16.40;11.73;;;;;;;;;;1462008;40;20433;-80
2021/05/23 04:28:17;;;;;;;20.55;12.25;;;;;;;;;;1453558;40;20801;-84
2021/05/23 04:29:19;;;;;;;19.52;12.35;;;;;;;;;;1453215;40;20414;-83
2021/05/23 04:30:24;;;;;;;18.40;12.77;;;;;;;;;;1457810;40;20427;-82
2021/05/23 04:31:26;;;;;;;15.52;12.50;;;;;;;;;;1453984;40;20425;-83
2021/05/23 04:32:28;;;;;;;19.60;12.63;;;;;;;;;;1449341;40;20761;-82
2021/05/23 04:33:30;;;;;;;19.10;12.88;;;;;;;;;;1458019;40;20480;-82
2021/05/23 04:34:34;;;;;;;15.23;11.77;;;;;;;;;;1461634;40;20445;-82
2021/05/23 04:35:36;;;;;;;15.90;11.52;;;;;;;;;;1458211;40;20478;-83
2021/05/23 04:36:38;;;;;;;12.50;9.35;;;;;;;;;;1461294;40;20397;-83
2021/05/23 04:37:40;;;;;;;12.35;8.13;;;;;;;;;;1465716;40;20431;-82
2021/05/23 04:38:41;;;;;;;7.57;5.47;;;;;;;;;;1461313;40;20409;-83
2021/05/23 04:39:43;;;;;;;4.45;3.55;;;;;;;;;;1457658;40;20786;-82
2021/05/23 04:40:45;;;;;;;5.60;3.55;;;;;;;;;;1457638;40;20415;-82
2021/05/23 04:41:47;;;;;;;4.80;4.30;;;;;;;;;;1457105;40;21287;-83
2021/05/23 04:42:49;;;;;;;4.30;4.00;;;;;;;;;;1461448;40;20436;-82
2021/05/23 04:44:09;;;;;;;7.13;3.80;;;;;;;;;;1460774;40;21201;-83
2021/05/23 04:45:11;;;;;;;4.13;3.53;;;;;;;;;;1465775;40;20424;-83
2021/05/23 04:46:13;;;;;;;7.88;3.72;;;;;;;;;;1454418;40;20512;-83
2021/05/23 04:47:15;;;;;;;5.47;4.53;;;;;;;;;;1452052;40;20410;-85
2021/05/23 04:48:17;;;;;;;7.38;4.10;;;;;;;;;;1463572;40;20445;-83
2021/05/23 04:49:19;;;;;;;6.60;4.32;;;;;;;;;;1459763;40;20426;-83
2021/05/23 04:50:21;;;;;;;4.03;3.40;;;;;;;;;;1459268;40;20415;-83
2021/05/23 04:51:22;;;;;;;6.45;3.80;;;;;;;;;;1461590;40;20452;-83
2021/05/23 04:52:24;;;;;;;4.90;2.15;;;;;;;;;;1465136;40;20426;-83
2021/05/23 04:53:26;;;;;;;2.83;1.75;;;;;;;;;;1461767;40;20537;-83
2021/05/23 04:54:28;;;;;;;3.88;2.63;;;;;;;;;;1454721;40;20407;-82
2021/05/23 04:55:29;;;;;;;2.38;2.15;;;;;;;;;;1461964;40;20472;-82
2021/05/23 04:56:31;;;;;;;3.72;2.35;;;;;;;;;;1465250;40;20554;-83
2021/05/23 04:57:33;;;;;;;3.33;2.42;;;;;;;;;;1461877;40;20433;-83
2021/05/23 04:58:35;;;;;;;4.43;2.35;;;;;;;;;;1461728;40;20424;-83
2021/05/23 04:59:37;;;;;;;4.65;2.40;;;;;;;;;;1461541;40;20405;-83
2021/05/23 05:00:39;;;;;;;11.43;2.83;;;;;;;;;;1461609;40;20417;-83
2021/05/23 05:01:40;;;;;;;21.60;3.65;;;;;;;;;;1461739;40;20823;-84
2021/05/23 05:02:43;;;;;;;16.17;4.95;;;;;;;;;;1465997;40;20419;-84
2021/05/23 05:03:45;;;;;;;8.43;4.57;;;;;;;;;;1465520;40;20423;-83
2021/05/23 05:04:48;;;;;;;6.55;3.72;;;;;;;;;;1465475;40;20477;-82
2021/05/23 05:05:51;;;;;;;7.13;3.78;;;;;;;;;;1465548;40;21092;-83
2021/05/23 05:06:52;;;;;;;6.15;3.42;;;;;;;;;;1456432;40;20419;-83
2021/05/23 05:07:54;;;;;;;4.82;4.20;;;;;;;;;;1458272;40;20418;-83
2021/05/23 05:08:56;;;;;;;8.60;5.45;;;;;;;;;;1457573;40;20477;-83
2021/05/23 05:09:58;;;;;;;11.20;5.85;;;;;;;;;;1465510;40;20517;-83
2021/05/23 05:10:59;;;;;;;14.18;6.03;;;;;;;;;;1457758;40;20473;-83
2021/05/23 05:12:01;;;;;;;9.55;5.60;;;;;;;;;;1453719;40;20425;-83
2021/05/23 05:13:02;;;;;;;8.68;6.03;;;;;;;;;;1461198;40;20409;-83
2021/05/23 05:14:05;;;;;;;13.10;6.63;;;;;;;;;;1462073;40;20405;-83
2021/05/23 05:15:08;;;;;;;13.43;7.28;;;;;;;;;;1453683;40;20425;-83
2021/05/23 05:16:11;;;;;;;13.85;7.03;;;;;;;;;;1454040;40;21114;-84
2021/05/23 05:17:12;;;;;;;19.90;7.55;;;;;;;;;;1457645;40;20502;-83
2021/05/23 05:18:14;;;;;;;15.10;7.00;;;;;;;;;;1457214;40;20476;-83
2021/05/23 05:19:16;;;;;;;14.25;8.13;;;;;;;;;;1462569;40;20440;-83
2021/05/23 05:20:17;;;;;;;18.48;8.00;;;;;;;;;;1465116;40;20606;-83
2021/05/23 05:21:19;;;;;;;16.60;8.77;;;;;;;;;;1463008;40;20412;-83
2021/05/23 05:22:21;;;;;;;16.60;8.15;;;;;;;;;;1457564;40;20418;-83
2021/05/23 05:23:22;;;;;;;18.85;8.63;;;;;;;;;;1457555;40;20824;-83
2021/05/23 05:24:24;;;;;;;17.98;8.25;;;;;;;;;;1453238;40;20424;-83
2021/05/23 05:25:26;;;;;;;13.30;7.78;;;;;;;;;;1445002;40;20798;-83
2021/05/23 05:26:27;;;;;;;14.60;7.45;;;;;;;;;;1449831;40;20699;-83
2021/05/23 05:27:29;;;;;;;15.93;8.13;;;;;;;;;;1453620;40;20651;-83
2021/05/23 05:28:31;;;;;;;18.83;8.27;;;;;;;;;;1457592;40;20431;-83
2021/05/23 05:29:33;;;;;;;15.50;8.07;;;;;;;;;;1453699;40;20412;-83
2021/05/23 05:30:35;;;;;;;13.85;7.85;;;;;;;;;;1449620;40;20820;-83
2021/05/23 05:31:36;;;;;;;19.40;8.65;;;;;;;;;;1456579;40;20470;-83
2021/05/23 05:32:38;;;;;;;20.90;8.80;;;;;;;;;;1461270;40;20425;-83
2021/05/23 05:33:40;;;;;;;21.25;8.95;;;;;;;;;;1461719;40;20680;-83
2021/05/23 05:34:41;;;;;;;18.88;8.05;;;;;;;;;;1457372;40;21113;-83
2021/05/23 05:35:43;;;;;;;21.23;8.25;;;;;;;;;;1461857;40;20427;-84
2021/05/23 05:36:46;;;;;;;23.33;8.63;;;;;;;;;;1457373;40;20421;-83
2021/05/23 05:37:48;;;;;;;29.02;8.25;;;;;;;;;;1457643;40;20419;-83
2021/05/23 05:38:50;;;;;;;21.30;9.52;;;;;;;;;;1457638;40;20411;-83
2021/05/23 05:39:52;;;;;;;26.95;9.85;;;;;;;;;;1461918;40;20580;-83
2021/05/23 05:40:54;;;;;;;24.83;9.15;;;;;;;;;;1461614;40;20500;-83
2021/05/23 05:41:56;;;;;;;27.15;8.95;;;;;;;;;;1461766;40;20416;-82
2021/05/23 05:42:57;;;;;;;26.35;8.13;;;;;;;;;;1465279;40;20844;-83
2021/05/23 05:43:59;;;;;;;27.75;8.07;;;;;;;;;;1455999;40;20426;-83
2021/05/23 05:45:01;;;;;;;31.40;8.50;;;;;;;;;;1457406;40;20414;-83
2021/05/23 05:46:02;;;;;;;33.85;8.73;;;;;;;;;;1465603;40;20411;-84
2021/05/23 05:47:04;;;;;;;30.80;8.18;;;;;;;;;;1457142;40;20455;-83
2021/05/23 05:48:06;;;;;;;24.23;7.18;;;;;;;;;;1453182;40;20841;-83
2021/05/23 05:49:08;;;;;;;30.08;8.75;;;;;;;;;;1457320;40;20414;-82
2021/05/23 05:50:10;;;;;;;28.70;7.53;;;;;;;;;;1455528;40;20432;-82
2021/05/23 05:51:12;;;;;;;28.27;7.88;;;;;;;;;;1449431;40;20425;-82
2021/05/23 05:52:14;;;;;;;24.27;7.32;;;;;;;;;;1457443;40;20654;-83
2021/05/23 05:53:16;;;;;;;27.42;8.07;;;;;;;;;;1461494;40;20425;-82
2021/05/23 05:54:17;;;;;;;24.80;7.32;;;;;;;;;;1457861;40;20410;-83
2021/05/23 05:55:20;;;;;;;23.50;7.50;;;;;;;;;;1462127;40;21255;-83
2021/05/23 05:56:22;;;;;;;25.63;6.97;;;;;;;;;;1461277;40;20521;-82
2021/05/23 05:57:23;;;;;;;23.30;7.57;;;;;;;;;;1455801;40;20428;-84
2021/05/23 05:58:25;;;;;;;26.08;6.95;;;;;;;;;;1453996;40;21000;-82
2021/05/23 05:59:27;;;;;;;25.10;7.07;;;;;;;;;;1454187;40;20421;-83
2021/05/23 06:00:28;;;;;;;25.23;6.70;;;;;;;;;;1458598;40;20486;-82
2021/05/23 06:01:30;;;;;;;21.45;6.53;;;;;;;;;;1457716;40;20418;-83
2021/05/23 06:02:32;;;;;;;19.95;6.13;;;;;;;;;;1462749;40;20433;-83
2021/05/23 06:03:33;;;;;;;24.70;6.50;;;;;;;;;;1458216;40;20406;-82
2021/05/23 06:04:35;;;;;;;25.00;7.45;;;;;;;;;;1454323;40;20419;-83
2021/05/23 06:05:37;;;;;;;22.13;6.32;;;;;;;;;;1454570;40;20810;-83
2021/05/23 06:06:38;;;;;;;19.67;5.78;;;;;;;;;;1454372;40;20420;-83
2021/05/23 06:07:42;;;;;;;17.70;6.75;;;;;;;;;;1458700;40;20604;-83
2021/05/23 06:08:44;;;;;;;24.02;6.70;;;;;;;;;;1461969;40;20413;-83